Aurora, WV

8:29 PM EDT on July 28, 2016 (GMT -0400)
1 1/2 Mi. South of Terra Alta, Snowy Creek WV | | Change Station

Elev 2842 ft 39.40 °N, 79.58 °W | Updated 16 seconds ago

Overcast
Overcast
66.7 °F
Feels Like 66.7 °F
N
0.0
Wind Variable Wind from WSW

Today
High -- | Low -- °F
--% Chance of Precip.
Yesterday
High -- | Low -- °F
Precip. -- in
Pressure 29.97 in
Visibility 4.0 miles
Clouds Scattered Clouds 4500 ft
Mostly Cloudy 5000 ft
Overcast 6000 ft
Dew Point 62 °F
Humidity 86%
Rainfall 1.38 in
Snow Depth Not available.
6:15 AM 8:33 PM
Waning Crescent, 27% visible
METAR K2G4 290005Z AUTO 14006KT 4SM BR SCT045 BKN050 OVC060 17/17 A2997 RMK AO1
Pressure 29.97 in
Visibility 4.0 miles
Clouds Scattered Clouds 4500 ft
Mostly Cloudy 5000 ft
Overcast 6000 ft
Dew Point 62 °F
Humidity 86%
Rainfall 1.38 in
Snow Depth Not available.
6:15 AM 8:33 PM
Waning Crescent, 27% visible
METAR K2G4 290005Z AUTO 14006KT 4SM BR SCT045 BKN050 OVC060 17/17 A2997 RMK AO1

10-Day Weather Forecast

Almanac

Astronomy

Jul. 28, 2016 Rise Set
Actual Time
Civil Twilight
Nautical Twilight
Astronomical Twilight
Moon
Length of Visible Light
Length of Day
Tomorrow will be .
, % of the Moon is Illuminated

Today's Extremes

State Highs State Lows

Community

WunderPhotos

Upload Photos

1,928,240 photos uploaded!

WunderBlog® & News

Nearby

Air Quality

  Air Quality AQ Index Pollutant
Not available.

Snow Depth

Station Depth Elevation

Earthquake Activity

City Distance Mag. Time & Date
Minimum magnitude displayed is 2.5.

Coastal Water Temperatures

Place Temperature

Stations

Nearby Weather Stations

Station Location Temp. Windchill Dew Point Humidity Wind Precip. Elev Updated Type
                   

Watches & Warnings

There are currently no watches in effect.